עמוד ראשי
METAR-TAF:

METAR-TAF

שדות תעופה :

White Mountain, אלסקה, ארצות הברית

קו רוחב: 64-41-21N, קו אורך: 163-24-46W, גובה: 81מטר

תצפית מזג אוויר נוכחית

הדו"ח נערך לפני 1 שעות ו 2דקות, בשעה 19:56 UTC
רוח 3קשר מכיוון דרום
טמפרטורת 11 צלסיוס
לחות 62%
לחץ 1025 hPa
ראות: 11.3קילומטר
שמיים נקיים

METAR: PAWM 151956Z AUTO 18003KT 7SM CLR 11/04 A3028 RMK AO2 SLP257 T01110044 PNO $

זמן: 12:58 (20:58 UTC)


TAF: חסר

תצפיות ותחזיות מזג אוויר לגבי יותר מ- 4,000 שדות תעופה ברחבי העולם. דוחות METAR ו- TAF.

התחנות הזמינות מסומנות בנקודות צהובות ואדומות על גבי המפה.

העבר את העכבר לנקודה הצבעונית על מנת לראות את שם התחנה.

לאחר מכן, לחץ כדי לראות את תוכן ואת תחזיות מזג האוויר.

כדי לשנות את המפה: לחץ על הכפתורים הירוקים עם הפלוס השחור כדי להתקרב; על הכפתור הירוק עם המקף כדי להתרחק; או בחיצים הירוקים למפות סמוכות.


METAR-TAF: